Time;durP1;ratioP1;P1;durP2;ratioP2;P2;SDS_P1;SDS_P2;PMS_P1;PMS_P2;Temp;Humidity;BMP_temperature;BMP_pressure;BME280_temperature;BME280_humidity;BME280_pressure;Samples;Min_cycle;Max_cycle;Signal;HPM_P1;HPM_P2
2023/01/06 00:02:01;;;;;;;1.38;0.40;;;12.50;99.90;;;;;;6342531;22;19995;-83
2023/01/06 00:04:27;;;;;;;0.93;0.40;;;12.40;99.90;;;;;;6316103;22;20332;-82
2023/01/06 00:06:52;;;;;;;2.50;0.47;;;12.40;99.90;;;;;;6313839;22;20003;-82
2023/01/06 00:09:24;;;;;;;0.95;0.30;;;12.40;99.90;;;;;;6315733;22;20028;-83
2023/01/06 00:11:49;;;;;;;1.02;0.32;;;12.40;99.90;;;;;;6315749;22;20002;-80
2023/01/06 00:14:15;;;;;;;0.77;0.40;;;12.30;99.90;;;;;;6343303;22;20089;-81
2023/01/06 00:16:41;;;;;;;1.25;0.30;;;12.40;99.90;;;;;;6314213;22;19999;-81
2023/01/06 00:19:09;;;;;;;2.00;0.40;;;12.40;99.90;;;;;;6343030;22;20447;-78
2023/01/06 00:21:35;;;;;;;1.00;0.60;;;12.40;99.90;;;;;;6343659;22;19998;-79
2023/01/06 00:24:00;;;;;;;0.90;0.35;;;12.40;99.90;;;;;;6316375;22;19999;-79
2023/01/06 00:26:26;;;;;;;1.70;0.40;;;12.40;99.90;;;;;;6341999;22;20022;-82
2023/01/06 00:28:54;;;;;;;1.90;0.45;;;12.30;99.90;;;;;;6315244;22;20330;-82
2023/01/06 00:31:21;;;;;;;0.57;0.35;;;12.30;99.90;;;;;;6343461;22;20003;-82
2023/01/06 00:33:47;;;;;;;2.90;0.43;;;12.30;99.90;;;;;;6314585;22;20002;-82
2023/01/06 00:36:13;;;;;;;0.65;0.40;;;12.30;99.90;;;;;;6315485;22;20006;-83
2023/01/06 00:38:39;;;;;;;1.75;0.47;;;12.30;99.90;;;;;;6315165;22;20060;-84
2023/01/06 00:43:56;;;;;;;1.60;0.43;;;12.30;99.90;;;;;;6342967;22;20071;-83
2023/01/06 00:46:27;;;;;;;0.60;0.30;;;12.30;99.90;;;;;;6315065;22;20082;-82
2023/01/06 00:48:54;;;;;;;0.82;0.32;;;12.30;99.90;;;;;;6315294;22;20078;-80
2023/01/06 00:51:20;;;;;;;1.20;0.40;;;12.30;99.90;;;;;;6343406;22;20077;-80
2023/01/06 00:53:45;;;;;;;0.57;0.32;;;12.30;99.90;;;;;;6315788;22;20010;-80
2023/01/06 00:56:11;;;;;;;2.25;0.50;;;12.20;99.90;;;;;;6343714;22;20000;-80
2023/01/06 00:58:37;;;;;;;0.73;0.28;;;12.20;99.90;;;;;;6343449;22;20006;-80
2023/01/06 01:01:05;;;;;;;1.70;0.40;;;12.20;99.90;;;;;;6343212;22;20009;-85
2023/01/06 01:03:32;;;;;;;1.77;0.40;;;12.30;99.90;;;;;;6314630;22;20454;-83
2023/01/06 01:05:59;;;;;;;1.55;0.50;;;12.20;99.90;;;;;;6316041;22;20034;-83
2023/01/06 01:08:25;;;;;;;1.50;0.30;;;12.30;99.90;;;;;;6315476;22;20428;-85
2023/01/06 01:10:51;;;;;;;0.95;0.30;;;12.30;99.90;;;;;;6316048;22;20007;-85
2023/01/06 01:13:17;;;;;;;0.77;0.40;;;12.30;99.90;;;;;;6343847;22;20070;-85
2023/01/06 01:15:43;;;;;;;0.55;0.25;;;12.30;99.90;;;;;;6316251;22;20003;-84
2023/01/06 01:18:09;;;;;;;1.35;0.38;;;12.30;99.90;;;;;;6343192;22;19999;-84
2023/01/06 01:20:34;;;;;;;2.28;0.50;;;12.30;99.90;;;;;;6316017;22;20006;-85
2023/01/06 01:23:00;;;;;;;1.00;0.40;;;12.40;99.90;;;;;;6343959;22;20358;-85
2023/01/06 01:25:26;;;;;;;1.15;0.40;;;12.30;99.90;;;;;;6343483;22;19995;-84
2023/01/06 01:27:51;;;;;;;0.82;0.35;;;12.30;99.90;;;;;;6316157;22;20088;-83
2023/01/06 01:30:19;;;;;;;1.98;0.40;;;12.30;99.90;;;;;;6316027;22;20002;-84
2023/01/06 01:32:46;;;;;;;1.20;0.30;;;12.30;99.90;;;;;;6342997;22;20007;-85
2023/01/06 01:35:11;;;;;;;0.95;0.43;;;12.30;99.90;;;;;;6315572;22;20363;-84
2023/01/06 01:37:37;;;;;;;2.15;0.50;;;12.30;99.90;;;;;;6315601;22;20048;-84
2023/01/06 01:40:03;;;;;;;1.55;0.30;;;12.30;99.90;;;;;;6344259;22;20005;-84
2023/01/06 01:42:29;;;;;;;0.75;0.20;;;12.30;99.90;;;;;;6317160;22;20052;-84
2023/01/06 01:45:24;;;;;;;0.65;0.40;;;12.30;99.90;;;;;;6345213;22;19995;-84
2023/01/06 01:48:04;;;;;;;0.98;0.30;;;12.30;99.90;;;;;;6284343;22;20427;-84
2023/01/06 01:50:44;;;;;;;1.45;0.40;;;12.30;99.90;;;;;;6345185;22;20003;-84
2023/01/06 01:53:21;;;;;;;2.13;0.35;;;12.30;99.90;;;;;;6317744;22;20427;-84
2023/01/06 01:55:49;;;;;;;1.40;0.60;;;12.20;99.90;;;;;;6345139;22;20010;-82
2023/01/06 01:58:27;;;;;;;2.78;0.50;;;12.30;99.90;;;;;;6345021;22;20029;-82
2023/01/06 02:00:52;;;;;;;1.52;0.45;;;12.30;99.90;;;;;;6344894;22;20041;-82
2023/01/06 02:03:20;;;;;;;5.38;0.75;;;12.30;99.90;;;;;;6344567;22;20003;-81
2023/01/06 02:05:53;;;;;;;3.25;0.47;;;12.30;99.90;;;;;;6345003;22;20016;-82
2023/01/06 02:08:28;;;;;;;2.17;0.50;;;12.30;99.90;;;;;;6344936;22;20006;-82
2023/01/06 02:10:54;;;;;;;1.65;0.35;;;12.30;99.90;;;;;;6316951;22;20447;-81
2023/01/06 02:13:20;;;;;;;1.98;0.40;;;12.40;99.90;;;;;;6344888;22;20029;-82
2023/01/06 02:15:45;;;;;;;1.38;0.40;;;12.30;99.90;;;;;;6317635;22;20064;-81
2023/01/06 02:18:49;;;;;;;1.73;0.50;;;12.30;99.90;;;;;;6344483;22;20030;-82
2023/01/06 02:21:36;;;;;;;0.90;0.40;;;12.30;99.90;;;;;;6316934;22;20014;-81
2023/01/06 02:24:19;;;;;;;2.50;0.45;;;12.30;99.90;;;;;;6316962;22;20003;-81
2023/01/06 02:26:54;;;;;;;;;;;12.20;99.90;;;;;;6345345;22;19995;-81
2023/01/06 02:29:44;;;;;;;0.40;0.25;;;12.20;99.90;;;;;;6317430;22;19899;-82
2023/01/06 02:32:32;;;;;;;2.30;0.55;;;12.20;99.90;;;;;;6344393;22;20006;-82
2023/01/06 02:35:01;;;;;;;1.42;0.60;;;12.10;99.90;;;;;;6343206;22;20415;-81
2023/01/06 02:38:01;;;;;;;1.40;0.30;;;12.10;99.90;;;;;;6344588;22;19999;-82
2023/01/06 02:40:43;;;;;;;1.20;0.40;;;12.10;99.90;;;;;;6317017;22;20003;-82
2023/01/06 02:43:30;;;;;;;2.13;0.50;;;12.10;99.90;;;;;;6317086;22;20019;-82
2023/01/06 02:46:25;;;;;;;1.33;0.38;;;12.10;99.90;;;;;;6317276;22;19999;-82
2023/01/06 02:48:58;;;;;;;0.75;0.28;;;12.10;99.90;;;;;;6316462;22;20003;-82
2023/01/06 02:51:34;;;;;;;0.52;0.38;;;12.00;99.90;;;;;;6344458;22;20366;-82
2023/01/06 02:54:24;;;;;;;2.33;0.50;;;12.10;99.90;;;;;;6317032;22;20450;-82
2023/01/06 02:57:17;;;;;;;1.23;0.40;;;12.00;99.90;;;;;;6344566;22;20010;-82
2023/01/06 03:00:11;;;;;;;2.90;0.30;;;12.00;99.90;;;;;;6323705;22;20055;-82
2023/01/06 03:02:41;;;;;;;2.45;0.40;;;12.00;99.90;;;;;;6326302;22;20060;-82
2023/01/06 03:05:11;;;;;;;0.63;0.20;;;12.00;99.90;;;;;;6344463;22;20003;-82
2023/01/06 03:07:38;;;;;;;1.20;0.20;;;12.00;99.90;;;;;;6316681;22;20033;-82
2023/01/06 03:10:06;;;;;;;1.45;0.32;;;12.00;99.90;;;;;;6316664;22;20061;-82
2023/01/06 03:12:48;;;;;;;0.90;0.40;;;12.00;99.90;;;;;;6344353;22;20003;-82
2023/01/06 03:15:14;;;;;;;2.00;0.30;;;12.00;99.90;;;;;;6344375;22;20424;-82
2023/01/06 03:17:40;;;;;;;2.28;0.40;;;12.00;99.90;;;;;;6316508;22;20010;-83
2023/01/06 03:20:06;;;;;;;1.27;0.32;;;12.00;99.90;;;;;;6344178;22;20074;-83
2023/01/06 03:22:34;;;;;;;0.30;0.20;;;11.90;99.90;;;;;;6316947;22;20006;-81
2023/01/06 03:25:00;;;;;;;1.17;0.35;;;12.00;99.90;;;;;;6316755;22;20005;-80
2023/01/06 03:27:26;;;;;;;2.25;0.38;;;12.00;99.90;;;;;;6344323;22;20022;-81
2023/01/06 03:29:53;;;;;;;0.70;0.40;;;11.90;99.90;;;;;;6316348;22;20003;-81
2023/01/06 03:32:33;;;;;;;1.15;0.45;;;11.90;99.90;;;;;;6343903;22;20024;-80
2023/01/06 03:35:27;;;;;;;1.25;0.47;;;12.00;99.90;;;;;;6344220;22;20009;-81
2023/01/06 03:38:07;;;;;;;1.58;0.47;;;11.90;99.90;;;;;;6344559;22;20002;-80
2023/01/06 03:56:06;;;;;;;0.43;0.32;;;11.80;99.90;;;;;;6251294;23;20020;-81
2023/01/06 03:58:33;;;;;;;1.65;0.47;;;11.80;99.90;;;;;;6251148;23;20079;-82
2023/01/06 04:01:00;;;;;;;3.28;0.50;;;11.80;99.90;;;;;;6224080;23;20058;-82
2023/01/06 04:03:26;;;;;;;1.20;0.40;;;11.80;99.90;;;;;;6223738;23;20375;-82
2023/01/06 04:05:53;;;;;;;0.95;0.20;;;11.80;99.90;;;;;;6251420;23;19999;-82
2023/01/06 04:08:19;;;;;;;1.52;0.52;;;11.90;99.90;;;;;;6250907;23;20333;-82
2023/01/06 04:10:45;;;;;;;0.95;0.47;;;11.90;99.90;;;;;;6223947;23;20055;-81
2023/01/06 04:13:10;;;;;;;1.27;0.35;;;11.90;99.90;;;;;;6251009;23;20125;-81
2023/01/06 04:15:36;;;;;;;2.50;0.63;;;11.90;99.90;;;;;;6223965;23;20004;-81
2023/01/06 04:18:02;;;;;;;3.67;0.77;;;11.90;99.90;;;;;;6249996;23;20000;-81
2023/01/06 04:20:29;;;;;;;2.30;0.40;;;12.00;99.90;;;;;;6250737;23;20476;-81
2023/01/06 04:22:56;;;;;;;0.52;0.30;;;12.00;99.90;;;;;;6224549;23;19996;-80
2023/01/06 04:25:22;;;;;;;2.25;0.55;;;12.00;99.90;;;;;;6223804;23;20000;-80
2023/01/06 04:27:48;;;;;;;1.58;0.30;;;12.00;99.90;;;;;;6250512;23;20101;-80
2023/01/06 04:30:14;;;;;;;0.60;0.20;;;12.00;99.90;;;;;;6250960;23;20004;-79
2023/01/06 04:32:39;;;;;;;0.75;0.30;;;11.90;99.90;;;;;;6250458;23;20585;-80
2023/01/06 04:35:06;;;;;;;1.90;0.32;;;12.00;99.90;;;;;;6224129;23;20054;-80
2023/01/06 04:37:32;;;;;;;2.08;0.30;;;12.00;99.90;;;;;;6251047;23;20126;-81
2023/01/06 04:40:06;;;;;;;1.30;0.57;;;12.00;99.90;;;;;;6250540;23;20006;-82
2023/01/06 04:45:45;;;;;;;0.70;0.30;;;11.90;99.90;;;;;;6250724;23;20006;-82
2023/01/06 04:48:23;;;;;;;0.55;0.22;;;11.90;99.90;;;;;;6223187;23;20007;-82
2023/01/06 04:50:49;;;;;;;1.48;0.25;;;11.90;99.90;;;;;;6250847;23;20000;-81
2023/01/06 04:53:15;;;;;;;1.60;0.30;;;12.00;99.90;;;;;;6224300;23;20429;-81
2023/01/06 04:55:41;;;;;;;1.85;0.30;;;12.00;99.90;;;;;;6223620;23;20023;-81
2023/01/06 04:58:07;;;;;;;1.77;0.60;;;12.00;99.90;;;;;;6224165;23;20004;-80
2023/01/06 05:17:41;;;;;;;1.20;0.30;;;12.10;99.90;;;;;;6251992;23;20464;-82
2023/01/06 05:20:25;;;;;;;0.30;0.20;;;12.10;99.90;;;;;;6225553;23;20004;-83
2023/01/06 05:23:07;;;;;;;1.05;0.28;;;12.10;99.90;;;;;;6226024;23;20000;-82
2023/01/06 05:29:30;;;;;;;0.82;0.30;;;12.10;99.90;;;;;;6235952;23;20043;-82
2023/01/06 05:32:42;;;;;;;;;;;;;;;;;;;;;
2023/01/06 05:35:56;;;;;;;2.00;0.50;;;12.10;99.90;;;;;;6159471;23;20085;-82
2023/01/06 05:38:59;;;;;;;0.68;0.40;;;12.00;99.90;;;;;;6081808;23;20002;-82
2023/01/06 05:42:10;;;;;;;1.15;0.28;;;12.10;99.90;;;;;;6100559;23;20396;-83
2023/01/06 05:45:11;;;;;;;1.25;0.25;;;12.10;99.90;;;;;;6048037;23;20349;-82
2023/01/06 05:48:50;;;;;;;;;;;;;;;;;;;;;
2023/01/06 05:51:27;;;;;;;1.98;0.30;;;12.00;99.90;;;;;;6181873;23;20009;-82
2023/01/06 05:54:16;;;;;;;1.00;0.20;;;12.10;99.90;;;;;;6164693;23;20031;-82
2023/01/06 05:56:48;;;;;;;2.22;0.40;;;12.10;99.90;;;;;;6189126;23;20009;-82
2023/01/06 05:59:17;;;;;;;0.85;0.30;;;12.10;99.90;;;;;;6163110;23;20108;-82
2023/01/06 06:01:45;;;;;;;0.75;0.30;;;12.10;99.90;;;;;;6163500;23;20009;-82
2023/01/06 06:04:12;;;;;;;1.63;0.60;;;12.10;99.90;;;;;;6250781;23;20000;-80
2023/01/06 06:06:37;;;;;;;1.70;0.40;;;12.10;99.90;;;;;;6225092;23;20004;-79
2023/01/06 06:09:04;;;;;;;2.17;0.40;;;12.10;99.90;;;;;;6252156;23;20042;-79
2023/01/06 06:11:30;;;;;;;0.95;0.50;;;12.10;99.90;;;;;;6252177;23;20381;-79
2023/01/06 06:13:56;;;;;;;1.00;0.30;;;12.10;99.90;;;;;;6225536;23;20008;-79
2023/01/06 06:16:24;;;;;;;2.80;0.45;;;12.10;99.90;;;;;;6252412;23;20494;-78
2023/01/06 06:18:51;;;;;;;3.00;0.50;;;12.10;99.90;;;;;;6251858;23;20008;-79
2023/01/06 06:21:20;;;;;;;2.28;0.40;;;12.10;99.90;;;;;;6225278;23;20012;-79
2023/01/06 06:23:46;;;;;;;1.48;0.40;;;12.20;99.90;;;;;;6224886;23;20062;-80
2023/01/06 06:26:11;;;;;;;1.58;0.60;;;12.20;99.90;;;;;;6224750;23;20031;-80
2023/01/06 06:28:38;;;;;;;2.10;0.50;;;12.20;99.90;;;;;;6225372;23;20058;-80
2023/01/06 06:31:10;;;;;;;1.48;0.40;;;12.20;99.90;;;;;;6225355;23;20083;-80
2023/01/06 06:33:35;;;;;;;2.67;0.45;;;12.30;99.90;;;;;;6251386;23;20003;-80
2023/01/06 06:36:32;;;;;;;3.78;0.77;;;12.20;99.90;;;;;;6251455;23;20007;-82
2023/01/06 06:39:10;;;;;;;1.15;0.40;;;12.30;99.90;;;;;;6224669;23;20011;-82
2023/01/06 06:41:36;;;;;;;1.27;0.50;;;12.30;99.90;;;;;;6224786;23;20479;-81
2023/01/06 06:44:08;;;;;;;1.35;0.47;;;12.30;99.90;;;;;;6251621;22;20000;-81
2023/01/06 06:46:34;;;;;;;2.53;0.52;;;12.30;99.90;;;;;;6251202;23;20054;-81
2023/01/06 06:48:59;;;;;;;1.48;0.50;;;12.40;99.90;;;;;;6224808;23;20004;-81
2023/01/06 06:51:36;;;;;;;1.48;0.40;;;12.30;99.90;;;;;;6224246;23;20011;-81
2023/01/06 06:54:03;;;;;;;1.50;0.52;;;12.40;99.90;;;;;;6251235;23;20008;-79
2023/01/06 06:56:29;;;;;;;1.75;0.60;;;12.40;99.90;;;;;;6225035;23;20453;-79
2023/01/06 06:58:54;;;;;;;3.75;0.70;;;12.40;99.90;;;;;;6252074;23;20007;-79
2023/01/06 07:01:21;;;;;;;1.70;0.70;;;12.40;99.90;;;;;;6251460;23;20036;-79
2023/01/06 07:03:47;;;;;;;2.25;0.60;;;12.40;99.90;;;;;;6253936;23;19996;-81
2023/01/06 07:06:16;;;;;;;1.50;0.73;;;12.40;99.90;;;;;;6224238;23;19996;-79
2023/01/06 07:08:44;;;;;;;1.25;0.60;;;12.40;99.90;;;;;;6248993;23;19996;-81
2023/01/06 07:11:09;;;;;;;0.30;0.20;;;12.40;99.90;;;;;;6225197;23;20359;-82
2023/01/06 07:13:35;;;;;;;1.55;0.57;;;12.40;99.90;;;;;;6224321;23;20109;-80
2023/01/06 07:16:01;;;;;;;1.15;0.52;;;12.40;99.90;;;;;;6224636;23;20008;-79
2023/01/06 07:18:26;;;;;;;1.67;0.50;;;12.50;99.90;;;;;;6248907;23;20004;-80
2023/01/06 07:20:52;;;;;;;2.33;0.73;;;12.50;99.90;;;;;;6248905;23;20065;-79
2023/01/06 07:23:24;;;;;;;2.05;0.50;;;12.50;99.90;;;;;;6251344;23;20074;-81
2023/01/06 07:25:52;;;;;;;1.80;0.40;;;12.50;99.90;;;;;;6223473;23;20057;-80
2023/01/06 07:28:17;;;;;;;1.70;0.70;;;12.50;99.90;;;;;;6224287;23;20012;-79
2023/01/06 07:30:43;;;;;;;0.95;0.50;;;12.50;99.90;;;;;;6250871;23;20004;-80
2023/01/06 07:33:09;;;;;;;1.80;0.50;;;12.50;99.90;;;;;;6249980;23;20011;-79
2023/01/06 07:35:35;;;;;;;2.20;0.50;;;12.50;99.90;;;;;;6249973;23;20019;-80
2023/01/06 07:38:05;;;;;;;2.10;0.60;;;12.50;99.90;;;;;;6250056;23;20063;-79
2023/01/06 07:40:30;;;;;;;1.38;0.52;;;12.50;99.90;;;;;;6223404;23;20039;-80
2023/01/06 07:42:56;;;;;;;1.80;0.57;;;12.50;99.90;;;;;;6223391;23;20007;-79
2023/01/06 07:45:22;;;;;;;1.17;0.43;;;12.50;99.90;;;;;;6223953;23;20039;-81
2023/01/06 07:47:48;;;;;;;0.82;0.50;;;12.50;99.90;;;;;;6250071;23;20007;-82
2023/01/06 07:50:13;;;;;;;0.93;0.45;;;12.50;99.90;;;;;;6250736;23;20028;-82
2023/01/06 07:52:39;;;;;;;1.35;0.50;;;12.50;99.90;;;;;;6250737;23;20060;-79
2023/01/06 07:55:05;;;;;;;1.65;0.50;;;12.50;99.90;;;;;;6249809;23;20024;-81
2023/01/06 07:57:31;;;;;;;4.30;0.60;;;12.50;99.90;;;;;;6250288;23;20000;-84
2023/01/06 07:59:56;;;;;;;1.20;0.50;;;12.40;99.90;;;;;;6250683;23;20008;-83
2023/01/06 08:02:24;;;;;;;1.13;0.60;;;12.50;99.90;;;;;;6224012;23;20011;-84
2023/01/06 08:04:50;;;;;;;1.20;0.45;;;12.50;99.90;;;;;;6224361;23;20000;-80
2023/01/06 08:07:19;;;;;;;1.02;0.40;;;12.50;99.90;;;;;;6250890;23;20494;-80
2023/01/06 08:09:45;;;;;;;1.58;0.50;;;12.50;99.90;;;;;;6249570;23;20432;-80
2023/01/06 08:12:11;;;;;;;0.85;0.40;;;12.50;99.90;;;;;;6249654;23;20011;-80
2023/01/06 08:14:37;;;;;;;1.25;0.57;;;12.50;99.90;;;;;;6223817;23;20008;-81
2023/01/06 08:17:08;;;;;;;0.93;0.40;;;12.50;99.90;;;;;;6248788;23;20000;-84
2023/01/06 08:19:34;;;;;;;0.90;0.40;;;12.50;99.90;;;;;;6223745;23;20499;-83
2023/01/06 08:22:00;;;;;;;2.40;0.50;;;12.50;99.90;;;;;;6250824;23;20001;-83
2023/01/06 08:24:28;;;;;;;0.60;0.30;;;12.50;99.90;;;;;;6249245;23;20088;-83
2023/01/06 08:26:56;;;;;;;0.77;0.30;;;12.60;99.90;;;;;;6223913;23;20512;-83
2023/01/06 08:29:22;;;;;;;1.23;0.50;;;12.60;99.90;;;;;;6250457;23;19996;-83
2023/01/06 08:31:48;;;;;;;2.55;0.50;;;12.60;99.90;;;;;;6223670;23;20380;-81
2023/01/06 08:34:14;;;;;;;1.52;0.52;;;12.60;99.90;;;;;;6250461;23;20008;-81
2023/01/06 08:36:42;;;;;;;1.05;0.20;;;12.60;99.90;;;;;;6223622;23;20030;-81
2023/01/06 08:39:07;;;;;;;1.70;0.40;;;12.70;99.90;;;;;;6247466;23;20011;-81
2023/01/06 08:41:33;;;;;;;0.38;0.28;;;12.70;99.90;;;;;;6222809;23;20004;-83
2023/01/06 08:43:59;;;;;;;2.00;0.40;;;12.70;99.90;;;;;;6222949;23;20000;-83
2023/01/06 08:46:25;;;;;;;0.95;0.40;;;12.70;99.90;;;;;;6249403;23;20000;-83
2023/01/06 08:48:51;;;;;;;0.52;0.25;;;12.70;99.90;;;;;;6223729;23;19992;-82
2023/01/06 08:51:19;;;;;;;1.60;0.50;;;12.70;99.90;;;;;;6251026;23;20060;-81
2023/01/06 08:53:46;;;;;;;1.08;0.50;;;12.70;99.90;;;;;;6225087;23;20007;-83
2023/01/06 08:56:24;;;;;;;1.55;0.70;;;12.70;99.90;;;;;;6251880;23;20004;-67
2023/01/06 08:58:51;;;;;;;0.47;0.30;;;12.80;99.90;;;;;;6251687;23;20011;-67
2023/01/06 09:01:20;;;;;;;1.10;0.45;;;12.80;99.90;;;;;;6251153;23;20004;-68
2023/01/06 09:03:46;;;;;;;1.08;0.45;;;12.80;99.90;;;;;;6224821;23;20007;-71
2023/01/06 09:06:12;;;;;;;1.00;0.50;;;12.80;99.90;;;;;;6251726;23;20310;-71
2023/01/06 09:08:37;;;;;;;1.98;0.52;;;12.80;99.90;;;;;;6251649;23;20079;-71
2023/01/06 09:11:10;;;;;;;0.40;0.20;;;12.90;99.90;;;;;;6251285;23;20011;-70
2023/01/06 09:13:37;;;;;;;1.30;0.50;;;12.90;99.90;;;;;;6222412;23;20008;-68
2023/01/06 09:16:07;;;;;;;1.02;0.32;;;12.90;99.90;;;;;;6224683;23;20000;-68
2023/01/06 09:18:36;;;;;;;0.82;0.40;;;12.90;99.90;;;;;;6251070;23;20004;-68
2023/01/06 09:21:05;;;;;;;1.08;0.40;;;12.90;99.90;;;;;;6251506;23;20028;-69
2023/01/06 09:23:31;;;;;;;0.85;0.30;;;12.80;99.90;;;;;;6251734;23;20000;-68
2023/01/06 09:25:57;;;;;;;0.77;0.40;;;12.90;99.90;;;;;;6252534;23;20003;-67
2023/01/06 09:28:24;;;;;;;1.75;0.55;;;12.90;99.90;;;;;;6252278;23;20050;-68
2023/01/06 09:30:50;;;;;;;1.55;0.55;;;12.90;99.90;;;;;;6252369;23;20004;-69
2023/01/06 09:33:16;;;;;;;1.08;0.40;;;12.80;99.90;;;;;;6224975;23;20031;-67
2023/01/06 09:35:46;;;;;;;1.25;0.40;;;12.80;99.90;;;;;;6252546;23;20028;-68
2023/01/06 09:38:12;;;;;;;0.90;0.60;;;12.80;99.90;;;;;;6224191;23;20011;-69
2023/01/06 09:40:43;;;;;;;3.17;0.70;;;12.80;99.90;;;;;;6252041;23;20365;-67
2023/01/06 09:43:27;;;;;;;1.58;0.30;;;12.80;99.90;;;;;;6224934;23;20000;-69
2023/01/06 09:45:55;;;;;;;0.93;0.40;;;12.80;99.90;;;;;;6252167;23;20002;-69
2023/01/06 09:48:32;;;;;;;0.98;0.47;;;12.90;99.90;;;;;;6224588;23;20514;-68
2023/01/06 09:51:02;;;;;;;1.25;0.60;;;12.90;99.90;;;;;;6252360;23;20430;-69
2023/01/06 09:53:34;;;;;;;0.90;0.30;;;13.00;99.90;;;;;;6249888;23;20095;-70
2023/01/06 09:56:07;;;;;;;3.25;0.50;;;13.10;99.90;;;;;;6252142;23;20087;-69
2023/01/06 09:58:41;;;;;;;1.60;0.50;;;13.20;99.90;;;;;;6248707;23;20004;-66
2023/01/06 10:01:15;;;;;;;1.38;0.43;;;13.20;99.90;;;;;;6250496;23;20123;-67
2023/01/06 10:03:44;;;;;;;1.90;0.52;;;13.30;99.90;;;;;;6251353;23;20003;-67
2023/01/06 10:06:26;;;;;;;2.55;0.50;;;13.30;99.90;;;;;;6252285;23;20000;-67
2023/01/06 10:09:10;;;;;;;1.92;0.50;;;13.30;99.90;;;;;;6250502;23;20031;-67
2023/01/06 10:11:47;;;;;;;0.88;0.40;;;13.30;99.90;;;;;;6252202;23;20008;-69
2023/01/06 10:14:24;;;;;;;1.40;0.60;;;13.30;99.90;;;;;;6224581;23;20062;-69
2023/01/06 10:17:17;;;;;;;1.45;0.63;;;13.30;99.90;;;;;;6251655;23;20325;-68
2023/01/06 10:20:00;;;;;;;1.90;0.50;;;13.30;99.90;;;;;;6248331;23;20429;-69
2023/01/06 10:22:49;;;;;;;2.55;0.60;;;13.30;99.90;;;;;;6224085;23;20031;-69
2023/01/06 10:25:20;;;;;;;1.60;0.60;;;13.30;99.90;;;;;;6250798;23;20015;-68
2023/01/06 10:28:09;;;;;;;0.93;0.55;;;13.40;99.90;;;;;;6251212;23;20117;-69
2023/01/06 10:30:40;;;;;;;2.17;0.95;;;13.30;99.90;;;;;;6224319;23;20012;-69
2023/01/06 10:33:05;;;;;;;1.95;0.80;;;13.30;99.90;;;;;;6248284;23;20008;-69
2023/01/06 10:35:32;;;;;;;1.40;0.77;;;13.30;99.90;;;;;;6250937;23;20011;-69
2023/01/06 10:38:04;;;;;;;1.40;0.60;;;13.30;99.90;;;;;;6250516;23;20012;-69
2023/01/06 10:40:32;;;;;;;1.15;0.60;;;13.30;99.90;;;;;;6223696;23;20008;-69
2023/01/06 10:43:02;;;;;;;1.55;0.50;;;13.30;99.90;;;;;;6250485;23;20000;-69
2023/01/06 10:45:35;;;;;;;1.63;0.75;;;13.30;99.90;;;;;;6250492;23;20000;-69
2023/01/06 10:48:03;;;;;;;1.63;0.75;;;13.30;99.90;;;;;;6250348;23;20007;-69
2023/01/06 10:50:29;;;;;;;1.55;0.90;;;13.20;99.90;;;;;;6249738;23;20423;-68
2023/01/06 10:52:54;;;;;;;2.72;0.90;;;13.20;99.90;;;;;;6250794;23;20036;-69
2023/01/06 10:55:52;;;;;;;2.45;0.95;;;13.20;99.90;;;;;;6249823;23;20020;-69
2023/01/06 10:58:48;;;;;;;2.05;0.73;;;13.20;99.90;;;;;;6239603;22;20380;-69
2023/01/06 11:01:22;;;;;;;1.67;0.80;;;13.20;99.90;;;;;;6249573;23;20004;-69
2023/01/06 11:04:08;;;;;;;2.42;0.90;;;13.20;99.90;;;;;;6250418;23;20000;-68
2023/01/06 11:06:35;;;;;;;2.33;1.38;;;13.20;99.90;;;;;;6223527;23;20001;-69
2023/01/06 11:09:07;;;;;;;1.30;0.90;;;13.20;99.90;;;;;;6248833;23;20011;-67
2023/01/06 11:11:46;;;;;;;1.92;0.70;;;13.20;99.90;;;;;;6247757;23;20015;-71
2023/01/06 11:14:19;;;;;;;1.65;0.93;;;13.20;99.90;;;;;;6250128;23;20007;-68
2023/01/06 11:16:56;;;;;;;2.50;0.70;;;13.10;99.90;;;;;;6249704;23;20063;-69
2023/01/06 11:19:32;;;;;;;1.73;0.70;;;13.20;99.90;;;;;;6250147;23;20507;-69
2023/01/06 11:21:58;;;;;;;1.23;0.60;;;13.10;99.90;;;;;;6250091;23;20023;-68
2023/01/06 11:24:25;;;;;;;0.50;0.40;;;13.10;99.90;;;;;;6223493;23;20005;-68
2023/01/06 11:27:13;;;;;;;1.48;0.52;;;13.20;99.90;;;;;;6250000;23;20425;-67
2023/01/06 11:29:39;;;;;;;0.70;0.40;;;13.20;99.90;;;;;;6249799;23;20747;-68
2023/01/06 11:32:17;;;;;;;1.30;0.40;;;13.20;99.90;;;;;;6249776;23;20018;-68
2023/01/06 11:34:54;;;;;;;1.45;0.65;;;13.20;99.90;;;;;;6250368;23;20000;-67
2023/01/06 11:37:33;;;;;;;1.30;0.57;;;13.20;99.90;;;;;;6223534;23;20004;-67
2023/01/06 11:40:01;;;;;;;1.65;0.50;;;13.30;99.90;;;;;;6222818;23;20028;-68
2023/01/06 11:42:27;;;;;;;2.53;0.88;;;13.30;99.90;;;;;;6221659;23;20004;-67
2023/01/06 11:44:52;;;;;;;1.50;0.60;;;13.40;99.90;;;;;;6222669;23;20015;-67
2023/01/06 11:47:22;;;;;;;1.40;0.60;;;13.50;99.90;;;;;;6222125;23;20039;-68
2023/01/06 11:49:53;;;;;;;0.90;0.30;;;13.50;99.90;;;;;;6249724;23;20005;-68
2023/01/06 11:52:27;;;;;;;0.70;0.40;;;13.50;99.90;;;;;;6223237;23;20091;-68
2023/01/06 11:55:19;;;;;;;1.23;0.50;;;13.60;99.90;;;;;;6250016;23;20012;-67
2023/01/06 11:57:53;;;;;;;1.27;0.50;;;13.60;99.90;;;;;;6239856;23;20004;-68
2023/01/06 12:00:37;;;;;;;;;;;13.60;99.90;;;;;;6250508;23;20043;-68
2023/01/06 12:03:25;;;;;;;0.28;0.20;;;13.70;99.90;;;;;;6249452;23;19964;-68
2023/01/06 12:05:56;;;;;;;0.75;0.40;;;13.70;99.90;;;;;;6249667;23;20024;-68
2023/01/06 12:08:42;;;;;;;1.13;0.40;;;13.70;99.90;;;;;;6223128;23;20087;-69
2023/01/06 12:11:13;;;;;;;0.80;0.40;;;13.70;99.90;;;;;;6222929;23;20087;-69
2023/01/06 12:13:39;;;;;;;0.52;0.30;;;13.80;99.90;;;;;;6222640;23;20036;-69
2023/01/06 12:16:22;;;;;;;0.60;0.40;;;13.80;99.90;;;;;;6249209;23;20000;-69
2023/01/06 12:18:49;;;;;;;1.70;0.50;;;13.80;99.90;;;;;;6223592;23;20015;-69
2023/01/06 12:21:25;;;;;;;0.85;0.65;;;13.70;99.90;;;;;;6249111;23;20000;-69
2023/01/06 12:23:53;;;;;;;1.50;0.50;;;13.70;99.90;;;;;;6222216;23;20000;-68
2023/01/06 12:26:23;;;;;;;0.88;0.38;;;13.60;99.90;;;;;;6249123;23;20004;-68
2023/01/06 12:28:51;;;;;;;0.82;0.50;;;13.60;99.90;;;;;;6246357;23;20011;-68
2023/01/06 12:31:34;;;;;;;0.38;0.30;;;13.60;99.90;;;;;;6245896;23;20373;-68
2023/01/06 12:34:02;;;;;;;1.00;0.40;;;13.50;99.90;;;;;;6249081;23;20000;-69
2023/01/06 12:36:47;;;;;;;1.13;0.52;;;13.60;99.90;;;;;;6249217;23;20008;-68
2023/01/06 12:39:21;;;;;;;0.95;0.35;;;13.50;99.90;;;;;;6248688;23;20023;-68
2023/01/06 12:41:51;;;;;;;1.30;0.60;;;13.50;99.90;;;;;;6222433;23;20008;-69
2023/01/06 12:44:36;;;;;;;1.60;0.50;;;13.50;99.90;;;;;;6250567;23;20000;-68
2023/01/06 12:47:05;;;;;;;1.67;0.60;;;13.50;99.90;;;;;;6249660;23;19996;-68
2023/01/06 12:49:39;;;;;;;1.52;0.50;;;13.60;99.90;;;;;;6250312;23;20394;-68
2023/01/06 12:52:11;;;;;;;1.13;0.50;;;13.60;99.90;;;;;;6249809;23;20040;-72
2023/01/06 12:54:37;;;;;;;1.40;0.60;;;13.60;99.90;;;;;;6215074;23;20024;-74
2023/01/06 12:57:07;;;;;;;0.70;0.50;;;13.70;99.90;;;;;;6215942;23;20441;-73
2023/01/06 13:00:01;;;;;;;0.70;0.40;;;13.70;99.90;;;;;;6213011;23;20008;-74
2023/01/06 13:02:35;;;;;;;1.90;0.70;;;13.70;99.90;;;;;;6217829;23;20012;-73
2023/01/06 13:05:10;;;;;;;1.10;0.40;;;13.70;99.90;;;;;;6213247;23;20331;-74
2023/01/06 13:08:07;;;;;;;1.38;0.45;;;13.80;99.90;;;;;;6215996;23;20442;-70
2023/01/06 13:10:38;;;;;;;0.98;0.50;;;13.80;99.90;;;;;;6209704;23;20068;-71
2023/01/06 13:13:30;;;;;;;1.50;0.80;;;13.80;99.90;;;;;;6215472;23;20426;-71
2023/01/06 13:16:01;;;;;;;1.25;0.50;;;13.80;99.90;;;;;;6217387;23;20076;-71
2023/01/06 13:18:32;;;;;;;1.40;0.50;;;13.80;99.90;;;;;;6218043;23;19996;-71
2023/01/06 13:21:05;;;;;;;1.30;0.60;;;13.80;99.90;;;;;;6215699;23;20008;-70
2023/01/06 13:23:55;;;;;;;1.45;0.47;;;13.80;99.90;;;;;;6217860;23;20310;-69
2023/01/06 13:26:35;;;;;;;2.40;0.60;;;13.80;99.90;;;;;;6217677;23;20422;-70
2023/01/06 13:29:13;;;;;;;1.83;0.55;;;13.80;99.90;;;;;;6217453;23;20454;-69
2023/01/06 13:32:06;;;;;;;1.15;0.50;;;13.80;99.90;;;;;;6215735;23;20005;-69
2023/01/06 13:34:46;;;;;;;1.35;0.57;;;13.80;99.90;;;;;;6216972;23;20004;-69
2023/01/06 13:37:26;;;;;;;1.80;0.82;;;13.80;99.90;;;;;;6218156;23;20058;-68
2023/01/06 13:40:12;;;;;;;2.80;0.85;;;13.70;99.90;;;;;;6217410;23;20008;-69
2023/01/06 13:43:02;;;;;;;3.83;1.23;;;13.70;99.90;;;;;;6217949;23;20003;-68
2023/01/06 13:45:41;;;;;;;5.30;2.10;;;13.70;99.90;;;;;;6216096;23;20047;-69
2023/01/06 13:48:10;;;;;;;4.07;1.40;;;13.70;99.90;;;;;;6218258;23;20007;-69
2023/01/06 13:50:40;;;;;;;4.38;1.52;;;13.60;99.90;;;;;;6216561;23;20032;-68
2023/01/06 13:53:12;;;;;;;4.53;1.92;;;13.60;99.90;;;;;;6216379;23;20516;-69
2023/01/06 13:55:39;;;;;;;3.58;1.50;;;13.60;99.90;;;;;;6245378;23;20468;-69
2023/01/06 13:58:24;;;;;;;3.92;1.80;;;13.60;99.90;;;;;;6248327;23;20004;-69
2023/01/06 14:01:18;;;;;;;3.83;1.50;;;13.60;99.90;;;;;;6247678;23;20000;-69